Time;durP1;ratioP1;P1;durP2;ratioP2;P2;SDS_P1;SDS_P2;PMS_P1;PMS_P2;Temp;Humidity;BMP_temperature;BMP_pressure;BME280_temperature;BME280_humidity;BME280_pressure;Samples;Min_cycle;Max_cycle;Signal;HPM_P1;HPM_P2
2022/10/25 00:02:19;;;;;;;9.68;9.27;;;;;;;-143.83;100.00;62900.06;5083203;28;20031;-65
2022/10/25 00:04:47;;;;;;;10.55;10.05;;;;;;;-143.83;100.00;62900.06;5082215;28;20055;-64
2022/10/25 00:07:13;;;;;;;9.95;9.45;;;;;;;-143.83;100.00;62900.06;5081209;28;20518;-65
2022/10/25 00:09:38;;;;;;;10.20;9.70;;;;;;;-143.83;100.00;62900.06;5085375;28;20532;-64
2022/10/25 00:12:04;;;;;;;9.90;9.43;;;;;;;-143.83;100.00;62900.06;5089024;28;20024;-65
2022/10/25 00:14:30;;;;;;;10.40;9.90;;;;;;;-143.83;100.00;62900.06;5082405;28;20044;-64
2022/10/25 00:16:56;;;;;;;10.40;9.90;;;;;;;-143.83;100.00;62900.06;5085071;28;20126;-64
2022/10/25 00:19:21;;;;;;;10.65;10.15;;;;;;;-143.83;100.00;62900.06;5077551;28;20142;-65
2022/10/25 00:21:47;;;;;;;10.35;9.85;;;;;;;-143.83;100.00;62900.06;5080195;28;20080;-65
2022/10/25 00:24:13;;;;;;;9.98;9.48;;;;;;;-143.83;100.00;62900.06;5086502;28;20030;-65
2022/10/25 00:26:40;;;;;;;10.20;9.70;;;;;;;-143.83;100.00;62900.06;5088885;28;20073;-64
2022/10/25 00:29:07;;;;;;;10.25;9.75;;;;;;;-143.83;100.00;62900.06;5085888;28;20016;-65
2022/10/25 00:31:33;;;;;;;9.55;9.15;;;;;;;-143.83;100.00;62900.06;5084869;28;20080;-65
2022/10/25 00:33:59;;;;;;;10.00;9.50;;;;;;;-143.83;100.00;62900.06;5088849;28;20023;-66
2022/10/25 00:36:26;;;;;;;9.80;9.38;;;;;;;-143.83;100.00;62900.06;5082001;28;20058;-66
2022/10/25 00:38:53;;;;;;;10.20;9.70;;;;;;;-143.83;100.00;62900.06;5081022;28;20424;-65
2022/10/25 00:41:22;;;;;;;9.90;9.40;;;;;;;-143.83;100.00;62900.06;5083809;28;20020;-65
2022/10/25 00:43:53;;;;;;;10.52;10.02;;;;;;;-143.83;100.00;62900.06;5088435;28;20024;-65
2022/10/25 00:46:19;;;;;;;10.25;9.75;;;;;;;-143.83;100.00;62900.06;5105091;28;20016;-65
2022/10/25 00:49:13;;;;;;;10.10;9.60;;;;;;;-143.83;100.00;62900.06;5076955;28;20024;-65
2022/10/25 00:52:01;;;;;;;10.18;9.68;;;;;;;-143.83;100.00;62900.06;5083161;28;20510;-66
2022/10/25 00:54:32;;;;;;;10.38;9.88;;;;;;;-143.83;100.00;62900.06;5082280;28;20384;-65
2022/10/25 00:57:03;;;;;;;10.13;9.63;;;;;;;-143.83;100.00;62900.06;5079144;28;20032;-65
2022/10/25 00:59:29;;;;;;;9.98;9.48;;;;;;;-143.83;100.00;62900.06;5080067;28;20111;-65
2022/10/25 01:01:56;;;;;;;10.30;9.80;;;;;;;-143.83;100.00;62900.06;5085272;28;20063;-65
2022/10/25 01:04:26;;;;;;;10.65;10.15;;;;;;;-143.83;100.00;62900.06;5088096;28;20024;-65
2022/10/25 01:06:52;;;;;;;10.18;9.68;;;;;;;-143.83;100.00;62900.06;5082753;28;20032;-64
2022/10/25 01:09:22;;;;;;;9.90;9.40;;;;;;;-143.83;100.00;62900.06;5079930;28;20385;-64
2022/10/25 01:11:48;;;;;;;10.20;9.70;;;;;;;-143.83;100.00;62900.06;5080537;28;20036;-65
2022/10/25 01:14:15;;;;;;;10.25;9.75;;;;;;;-143.83;100.00;62900.06;5084229;28;20042;-65
2022/10/25 01:17:09;;;;;;;10.10;9.60;;;;;;;-143.83;100.00;62900.06;5078606;28;20025;-65
2022/10/25 01:19:53;;;;;;;9.52;9.10;;;;;;;-143.83;100.00;62900.06;5084743;28;20035;-64
2022/10/25 01:22:39;;;;;;;9.38;8.98;;;;;;;-143.83;100.00;62900.06;5088964;28;20119;-65
2022/10/25 01:25:47;;;;;;;10.10;9.60;;;;;;;-143.83;100.00;62900.06;5104122;28;20483;-64
2022/10/25 01:28:25;;;;;;;9.95;9.45;;;;;;;-143.83;100.00;62900.06;5069849;28;20511;-65
2022/10/25 01:31:23;;;;;;;10.18;9.68;;;;;;;-143.83;100.00;62900.06;5080269;28;20082;-65
2022/10/25 01:34:17;;;;;;;10.25;9.75;;;;;;;-143.83;100.00;62900.06;5084700;28;20054;-65
2022/10/25 01:37:10;;;;;;;10.07;9.57;;;;;;;-143.83;100.00;62900.06;5086192;28;20051;-64
2022/10/25 01:39:44;;;;;;;10.13;9.63;;;;;;;-143.83;100.00;62900.06;5083897;28;20028;-64
2022/10/25 01:42:22;;;;;;;9.88;9.38;;;;;;;-143.83;100.00;62900.06;5079862;28;20028;-65
2022/10/25 01:45:09;;;;;;;10.23;9.73;;;;;;;-143.83;100.00;62900.06;5080141;28;20036;-65
2022/10/25 01:47:47;;;;;;;9.95;9.45;;;;;;;-143.83;100.00;62900.06;5082987;28;20428;-65
2022/10/25 01:50:19;;;;;;;9.90;9.40;;;;;;;-143.83;100.00;62900.06;5079129;28;20441;-65
2022/10/25 01:52:44;;;;;;;10.45;9.95;;;;;;;-143.83;100.00;62900.06;5084401;28;20024;-65
2022/10/25 01:55:12;;;;;;;9.95;9.45;;;;;;;-143.83;100.00;62900.06;5085488;28;20467;-65
2022/10/25 01:57:38;;;;;;;10.50;10.00;;;;;;;-143.83;100.00;62900.06;5087571;28;20046;-65
2022/10/25 02:00:06;;;;;;;10.20;9.70;;;;;;;-143.83;100.00;62900.06;5079873;28;20360;-65
2022/10/25 02:02:55;;;;;;;9.93;9.43;;;;;;;-143.83;100.00;62900.06;5079310;28;20168;-65
2022/10/25 02:05:32;;;;;;;10.23;9.73;;;;;;;-143.83;100.00;62900.06;5081856;28;20024;-64
2022/10/25 02:08:27;;;;;;;10.20;9.70;;;;;;;-143.83;100.00;62900.06;5080314;28;20036;-65
2022/10/25 02:11:27;;;;;;;10.80;10.30;;;;;;;-143.83;100.00;62900.06;5083523;28;20025;-64
2022/10/25 02:14:10;;;;;;;10.30;9.80;;;;;;;-143.83;100.00;62900.06;5078413;28;20032;-66
2022/10/25 02:16:49;;;;;;;10.10;9.60;;;;;;;-143.83;100.00;62900.06;5082594;28;20024;-65
2022/10/25 02:19:22;;;;;;;10.32;9.82;;;;;;;-143.83;100.00;62900.06;5084288;28;20041;-65
2022/10/25 02:21:50;;;;;;;10.38;9.88;;;;;;;-143.83;100.00;62900.06;5079764;28;20049;-66
2022/10/25 02:24:22;;;;;;;10.30;9.80;;;;;;;-143.83;100.00;62900.06;5084824;28;20034;-65
2022/10/25 02:26:49;;;;;;;10.25;9.75;;;;;;;-143.83;100.00;62900.06;5083169;28;20032;-65
2022/10/25 02:29:17;;;;;;;10.25;9.75;;;;;;;-143.83;100.00;62900.06;5082764;28;20069;-65
2022/10/25 02:31:44;;;;;;;9.63;9.23;;;;;;;-143.83;100.00;62900.06;5083707;28;20101;-65
2022/10/25 02:34:09;;;;;;;10.10;9.60;;;;;;;-143.83;100.00;62900.06;5087808;28;20077;-65
2022/10/25 02:36:35;;;;;;;10.48;9.98;;;;;;;-143.83;100.00;62900.06;5080543;28;20036;-65
2022/10/25 02:39:01;;;;;;;9.93;9.43;;;;;;;-143.83;100.00;62900.06;5084927;28;20074;-65
2022/10/25 02:41:26;;;;;;;10.48;9.98;;;;;;;-143.83;100.00;62900.06;5084559;28;20024;-65
2022/10/25 02:43:52;;;;;;;10.23;9.73;;;;;;;-143.83;100.00;62900.06;5084789;28;20376;-65
2022/10/25 02:46:21;;;;;;;10.10;9.60;;;;;;;-143.83;100.00;62900.06;5089782;28;20036;-65
2022/10/25 02:48:47;;;;;;;10.05;9.55;;;;;;;-143.83;100.00;62900.06;5086640;28;20020;-66
2022/10/25 02:51:13;;;;;;;9.68;9.23;;;;;;;-143.83;100.00;62900.06;5088018;28;20443;-65
2022/10/25 02:53:39;;;;;;;9.98;9.48;;;;;;;-143.83;100.00;62900.06;5085614;28;20111;-65
2022/10/25 02:56:07;;;;;;;10.60;10.10;;;;;;;-143.83;100.00;62900.06;5089027;28;20479;-66
2022/10/25 02:58:36;;;;;;;9.90;9.40;;;;;;;-143.83;100.00;62900.06;5086022;28;20061;-65
2022/10/25 03:01:04;;;;;;;10.30;9.80;;;;;;;-143.83;100.00;62900.06;5085795;28;20081;-65
2022/10/25 03:03:30;;;;;;;10.27;9.77;;;;;;;-143.83;100.00;62900.06;5086506;28;20027;-66
2022/10/25 03:05:56;;;;;;;10.40;9.90;;;;;;;-143.83;100.00;62900.06;5080491;28;20024;-66
2022/10/25 03:08:23;;;;;;;10.38;9.88;;;;;;;-143.83;100.00;62900.06;5087952;28;20020;-65
2022/10/25 03:10:49;;;;;;;10.57;10.07;;;;;;;-143.83;100.00;62900.06;5085701;28;20044;-65
2022/10/25 03:13:14;;;;;;;10.50;10.00;;;;;;;-143.83;100.00;62900.06;5083435;28;20068;-65
2022/10/25 03:15:41;;;;;;;10.00;9.50;;;;;;;-143.83;100.00;62900.06;5083260;28;20037;-64
2022/10/25 03:18:06;;;;;;;10.18;9.68;;;;;;;-143.83;100.00;62900.06;5084194;28;20032;-65
2022/10/25 03:20:32;;;;;;;10.05;9.55;;;;;;;-143.83;100.00;62900.06;5084031;28;20028;-66
2022/10/25 03:22:57;;;;;;;10.18;9.68;;;;;;;-143.83;100.00;62900.06;5083338;28;20101;-66
2022/10/25 03:25:22;;;;;;;9.65;9.23;;;;;;;-143.83;100.00;62900.06;5086307;28;20364;-66
2022/10/25 03:27:48;;;;;;;11.30;10.70;;;;;;;-143.83;100.00;62900.06;5088586;28;20394;-66
2022/10/25 03:30:14;;;;;;;10.23;9.73;;;;;;;-143.83;100.00;62900.06;5078066;28;20142;-65
2022/10/25 03:32:39;;;;;;;10.23;9.73;;;;;;;-143.83;100.00;62900.06;5085974;28;20451;-65
2022/10/25 03:35:06;;;;;;;10.13;9.63;;;;;;;-143.83;100.00;62900.06;5086974;28;20028;-65
2022/10/25 03:37:31;;;;;;;10.20;9.70;;;;;;;-143.83;100.00;62900.06;5084229;28;20024;-64
2022/10/25 03:39:57;;;;;;;10.73;10.23;;;;;;;-143.83;100.00;62900.06;5089320;28;20053;-64
2022/10/25 03:42:22;;;;;;;9.82;9.35;;;;;;;-143.83;100.00;62900.06;5083379;28;20028;-66
2022/10/25 03:44:49;;;;;;;10.10;9.60;;;;;;;-143.83;100.00;62900.06;5083068;28;20119;-66
2022/10/25 03:47:14;;;;;;;10.02;9.52;;;;;;;-143.83;100.00;62900.06;5084345;28;20027;-65
2022/10/25 03:49:41;;;;;;;10.02;9.52;;;;;;;-143.83;100.00;62900.06;5089882;28;20126;-64
2022/10/25 03:52:06;;;;;;;10.18;9.68;;;;;;;-143.83;100.00;62900.06;5084333;28;20044;-66
2022/10/25 03:54:33;;;;;;;10.20;9.70;;;;;;;-143.83;100.00;62900.06;5085149;28;20077;-66
2022/10/25 03:56:59;;;;;;;10.10;9.60;;;;;;;-143.83;100.00;62900.06;5083549;28;20028;-66
2022/10/25 03:59:25;;;;;;;10.48;9.98;;;;;;;-143.83;100.00;62900.06;5079205;28;20027;-66
2022/10/25 04:01:50;;;;;;;9.82;9.35;;;;;;;-143.83;100.00;62900.06;5084265;28;20028;-65
2022/10/25 04:04:16;;;;;;;9.63;9.20;;;;;;;-143.83;100.00;62900.06;5084204;28;20035;-65
2022/10/25 04:06:41;;;;;;;10.00;9.50;;;;;;;-143.83;100.00;62900.06;5079300;28;20058;-66
2022/10/25 04:09:07;;;;;;;10.38;9.88;;;;;;;-143.83;100.00;62900.06;5086548;28;20078;-66
2022/10/25 04:11:33;;;;;;;10.20;9.70;;;;;;;-143.83;100.00;62900.06;5086610;28;20035;-65
2022/10/25 04:13:58;;;;;;;10.88;10.32;;;;;;;-143.83;100.00;62900.06;5079137;28;20023;-67
2022/10/25 04:16:25;;;;;;;9.82;9.35;;;;;;;-143.83;100.00;62900.06;5083474;28;20067;-65
2022/10/25 04:18:52;;;;;;;10.73;10.23;;;;;;;-143.83;100.00;62900.06;5086626;28;20569;-65
2022/10/25 04:21:19;;;;;;;10.10;9.60;;;;;;;-143.83;100.00;62900.06;5085298;28;20498;-65
2022/10/25 04:23:44;;;;;;;10.13;9.63;;;;;;;-143.83;100.00;62900.06;5085168;28;20021;-65
2022/10/25 04:26:10;;;;;;;9.30;8.90;;;;;;;-143.83;100.00;62900.06;5085449;28;20399;-65
2022/10/25 04:28:35;;;;;;;9.98;9.48;;;;;;;-143.83;100.00;62900.06;5083811;28;20079;-65
2022/10/25 04:31:01;;;;;;;9.73;9.23;;;;;;;-143.83;100.00;62900.06;5083470;28;20416;-64
2022/10/25 04:33:27;;;;;;;9.70;9.23;;;;;;;-143.83;100.00;62900.06;5079156;28;20024;-64
2022/10/25 04:35:56;;;;;;;9.52;9.13;;;;;;;-143.83;100.00;62900.06;5082219;28;20043;-66
2022/10/25 04:38:22;;;;;;;10.75;10.25;;;;;;;-143.83;100.00;62900.06;5082949;28;20479;-64
2022/10/25 04:40:56;;;;;;;10.02;9.52;;;;;;;-143.83;100.00;62900.06;5086285;28;20035;-64
2022/10/25 04:43:22;;;;;;;9.85;9.38;;;;;;;-143.83;100.00;62900.06;5087383;28;20439;-64
2022/10/25 04:45:48;;;;;;;11.13;10.52;;;;;;;-143.83;100.00;62900.06;5082544;28;20024;-64
2022/10/25 04:48:14;;;;;;;9.63;9.23;;;;;;;-143.83;100.00;62900.06;5084445;28;20385;-64
2022/10/25 04:50:39;;;;;;;9.63;9.23;;;;;;;-143.83;100.00;62900.06;5087845;28;20090;-64
2022/10/25 04:53:05;;;;;;;9.82;9.32;;;;;;;-143.83;100.00;62900.06;5086132;28;20050;-62
2022/10/25 04:55:31;;;;;;;10.07;9.57;;;;;;;-143.83;100.00;62900.06;5082754;28;20028;-63
2022/10/25 04:57:56;;;;;;;10.00;9.50;;;;;;;-143.83;100.00;62900.06;5082490;28;20032;-64
2022/10/25 05:00:23;;;;;;;11.43;10.82;;;;;;;-143.83;100.00;62900.06;5086704;28;20035;-66
2022/10/25 05:02:55;;;;;;;10.30;9.80;;;;;;;-143.83;100.00;62900.06;5077529;28;20029;-63
2022/10/25 05:05:23;;;;;;;11.77;11.18;;;;;;;-143.83;100.00;62900.06;5080116;28;20137;-63
2022/10/25 05:07:48;;;;;;;11.63;11.02;;;;;;;-143.83;100.00;62900.06;5079834;28;20031;-62
2022/10/25 05:10:14;;;;;;;12.35;11.65;;;;;;;-143.83;100.00;62900.06;5085488;28;20023;-62
2022/10/25 05:12:40;;;;;;;12.15;11.48;;;;;;;-143.83;100.00;62900.06;5080330;28;20180;-62
2022/10/25 05:15:06;;;;;;;10.63;10.13;;;;;;;-143.83;100.00;62900.06;5075835;28;20122;-62
2022/10/25 05:17:32;;;;;;;10.25;9.75;;;;;;;-143.83;100.00;62900.06;5088715;28;20059;-62
2022/10/25 05:19:58;;;;;;;10.50;10.00;;;;;;;-143.83;100.00;62900.06;5085153;28;20548;-63
2022/10/25 05:22:24;;;;;;;10.48;9.98;;;;;;;-143.83;100.00;62900.06;5080897;28;20042;-61
2022/10/25 05:24:49;;;;;;;11.05;10.45;;;;;;;-143.83;100.00;62900.06;5080039;28;20032;-62
2022/10/25 05:27:15;;;;;;;10.25;9.75;;;;;;;-143.83;100.00;62900.06;5075806;28;20024;-63
2022/10/25 05:29:41;;;;;;;11.07;10.50;;;;;;;-143.83;100.00;62900.06;5087879;28;20074;-63
2022/10/25 05:32:07;;;;;;;10.10;9.60;;;;;;;-143.83;100.00;62900.06;5084080;28;20020;-63
2022/10/25 05:34:32;;;;;;;10.23;9.73;;;;;;;-143.83;100.00;62900.06;5088441;28;20088;-63
2022/10/25 05:36:58;;;;;;;10.68;10.18;;;;;;;-143.83;100.00;62900.06;5079848;28;20024;-62
2022/10/25 05:39:23;;;;;;;10.23;9.73;;;;;;;-143.83;100.00;62900.06;5082886;28;20509;-62
2022/10/25 05:41:49;;;;;;;10.98;10.43;;;;;;;-143.83;100.00;62900.06;5082580;28;20120;-63
2022/10/25 05:44:16;;;;;;;10.27;9.77;;;;;;;-143.83;100.00;62900.06;5089569;28;20028;-63
2022/10/25 05:46:42;;;;;;;11.85;11.25;;;;;;;-143.83;100.00;62900.06;5080962;28;20116;-61
2022/10/25 05:49:09;;;;;;;10.38;9.88;;;;;;;-143.83;100.00;62900.06;5075324;28;20031;-63
2022/10/25 05:51:35;;;;;;;11.75;11.15;;;;;;;-143.83;100.00;62900.06;5077355;28;20063;-65
2022/10/25 05:54:05;;;;;;;12.10;11.50;;;;;;;-143.83;100.00;62900.06;5080066;28;20090;-65
2022/10/25 05:56:32;;;;;;;12.38;11.73;;;;;;;-143.83;100.00;62900.06;5081462;28;22036;-64
2022/10/25 05:59:01;;;;;;;11.45;10.85;;;;;;;-143.83;100.00;62900.06;5076152;28;20126;-65
2022/10/25 06:01:27;;;;;;;10.50;10.00;;;;;;;-143.83;100.00;62900.06;5081541;28;20033;-65
2022/10/25 06:03:54;;;;;;;10.43;9.93;;;;;;;-143.83;100.00;62900.06;5080076;28;20020;-64
2022/10/25 06:06:21;;;;;;;10.85;10.35;;;;;;;-143.83;100.00;62900.06;5072948;28;20036;-67
2022/10/25 06:08:47;;;;;;;13.40;12.73;;;;;;;-143.83;100.00;62900.06;5080604;28;20031;-67
2022/10/25 06:11:15;;;;;;;10.40;9.90;;;;;;;-143.83;100.00;62900.06;5084728;28;20844;-69
2022/10/25 06:13:41;;;;;;;11.20;10.70;;;;;;;-143.83;100.00;62900.06;5085844;28;20074;-69
2022/10/25 06:16:12;;;;;;;11.43;10.93;;;;;;;-143.83;100.00;62900.06;5085094;28;20055;-68
2022/10/25 06:18:38;;;;;;;10.80;10.30;;;;;;;-143.83;100.00;62900.06;5082727;28;20028;-68
2022/10/25 06:21:06;;;;;;;10.45;9.95;;;;;;;-143.83;100.00;62900.06;5086697;28;20024;-67
2022/10/25 06:23:37;;;;;;;11.00;10.50;;;;;;;-143.83;100.00;62900.06;5082673;28;20120;-68
2022/10/25 06:26:08;;;;;;;10.63;10.13;;;;;;;-143.83;100.00;62900.06;5084719;28;20037;-67
2022/10/25 06:28:34;;;;;;;10.93;10.43;;;;;;;-143.83;100.00;62900.06;5085439;28;20031;-69
2022/10/25 06:31:05;;;;;;;10.80;10.30;;;;;;;-143.83;100.00;62900.06;5085928;28;20106;-69
2022/10/25 06:33:31;;;;;;;10.70;10.20;;;;;;;-143.83;100.00;62900.06;5084660;28;20048;-69
2022/10/25 06:35:58;;;;;;;10.65;10.15;;;;;;;-143.83;100.00;62900.06;5089456;28;20054;-68
2022/10/25 06:38:24;;;;;;;10.93;10.43;;;;;;;-143.83;100.00;62900.06;5082092;28;20036;-69
2022/10/25 06:40:49;;;;;;;10.93;10.43;;;;;;;-143.83;100.00;62900.06;5089061;28;20115;-68
2022/10/25 06:43:15;;;;;;;11.00;10.50;;;;;;;-143.83;100.00;62900.06;5088966;28;20123;-68
2022/10/25 06:45:41;;;;;;;11.68;11.13;;;;;;;-143.83;100.00;62900.06;5081288;28;20020;-68
2022/10/25 06:48:07;;;;;;;10.68;10.18;;;;;;;-143.83;100.00;62900.06;5082382;28;20024;-68
2022/10/25 06:50:32;;;;;;;11.00;10.50;;;;;;;-143.83;100.00;62900.06;5088836;28;20051;-67
2022/10/25 06:53:02;;;;;;;11.52;11.02;;;;;;;-143.83;100.00;62900.06;5085670;28;20554;-68
2022/10/25 06:55:27;;;;;;;10.38;9.88;;;;;;;-143.83;100.00;62900.06;5082597;28;20116;-67
2022/10/25 06:57:55;;;;;;;11.23;10.73;;;;;;;-143.83;100.00;62900.06;5079829;28;20166;-68
2022/10/25 07:00:22;;;;;;;11.05;10.55;;;;;;;-143.83;100.00;62900.06;5082711;28;20140;-69
2022/10/25 07:02:58;;;;;;;11.00;10.50;;;;;;;-143.83;100.00;62900.06;5084466;28;20661;-67
2022/10/25 07:05:24;;;;;;;11.20;10.70;;;;;;;-143.83;100.00;62900.06;5081986;28;20047;-68
2022/10/25 07:07:50;;;;;;;11.55;11.00;;;;;;;-143.83;100.00;62900.06;5081745;28;20037;-67
2022/10/25 07:10:17;;;;;;;11.40;10.90;;;;;;;-143.83;100.00;62900.06;5088124;28;20136;-67
2022/10/25 07:12:42;;;;;;;11.13;10.63;;;;;;;-143.83;100.00;62900.06;5086744;28;20293;-69
2022/10/25 07:15:08;;;;;;;10.63;10.13;;;;;;;-143.83;100.00;62900.06;5083545;28;20616;-66
2022/10/25 07:17:34;;;;;;;10.80;10.30;;;;;;;-143.83;100.00;62900.06;5082358;28;20097;-67
2022/10/25 07:19:59;;;;;;;11.70;11.10;;;;;;;-143.83;100.00;62900.06;5081913;28;20438;-65
2022/10/25 07:22:25;;;;;;;11.30;10.80;;;;;;;-143.83;100.00;62900.06;5081088;28;20031;-66
2022/10/25 07:24:50;;;;;;;11.13;10.63;;;;;;;-143.83;100.00;62900.06;5088110;28;20024;-66
2022/10/25 07:27:16;;;;;;;10.88;10.38;;;;;;;-143.83;100.00;62900.06;5082952;28;20024;-66
2022/10/25 07:29:42;;;;;;;11.23;10.73;;;;;;;-143.83;100.00;62900.06;5084112;28;20027;-68
2022/10/25 07:32:08;;;;;;;10.68;10.18;;;;;;;-143.83;100.00;62900.06;5083086;28;20028;-68
2022/10/25 07:34:34;;;;;;;10.70;10.20;;;;;;;-143.83;100.00;62900.06;5082421;28;20055;-68
2022/10/25 07:36:59;;;;;;;11.50;10.95;;;;;;;-143.83;100.00;62900.06;5081902;28;20607;-67
2022/10/25 07:39:25;;;;;;;10.95;10.45;;;;;;;-143.83;100.00;62900.06;5086134;28;20024;-68
2022/10/25 07:41:52;;;;;;;12.02;11.43;;;;;;;-143.83;100.00;62900.06;5083811;28;20028;-67
2022/10/25 07:44:18;;;;;;;11.10;10.60;;;;;;;-143.83;100.00;62900.06;5078261;28;20047;-68
2022/10/25 07:46:44;;;;;;;11.43;10.85;;;;;;;-143.83;100.00;62900.06;5080349;28;20036;-69
2022/10/25 07:49:09;;;;;;;10.98;10.48;;;;;;;-143.83;100.00;62900.06;5079119;28;20092;-67
2022/10/25 07:51:35;;;;;;;11.10;10.60;;;;;;;-143.83;100.00;62900.06;5076668;28;20135;-66
2022/10/25 07:54:00;;;;;;;10.75;10.25;;;;;;;-143.83;100.00;62900.06;5086123;28;20062;-67
2022/10/25 07:56:26;;;;;;;11.13;10.63;;;;;;;-143.83;100.00;62900.06;5078089;28;20028;-67
2022/10/25 07:58:51;;;;;;;11.23;10.73;;;;;;;-143.83;100.00;62900.06;5077611;28;20040;-68
2022/10/25 08:01:22;;;;;;;10.77;10.27;;;;;;;-143.83;100.00;62900.06;5077366;28;20027;-68
2022/10/25 08:03:48;;;;;;;10.30;9.88;;;;;;;-143.83;100.00;62900.06;5078943;28;20084;-67
2022/10/25 08:06:14;;;;;;;10.93;10.43;;;;;;;-143.83;100.00;62900.06;5079872;28;20120;-69
2022/10/25 08:08:39;;;;;;;10.25;9.85;;;;;;;-143.83;100.00;62900.06;5089142;28;20104;-69
2022/10/25 08:11:07;;;;;;;10.38;9.90;;;;;;;-143.83;100.00;62900.06;5082246;28;20086;-69
2022/10/25 08:13:37;;;;;;;10.48;9.98;;;;;;;-143.83;100.00;62900.06;5080254;28;20032;-69
2022/10/25 08:16:03;;;;;;;11.15;10.65;;;;;;;-143.83;100.00;62900.06;5083215;28;20535;-66
2022/10/25 08:18:30;;;;;;;10.60;10.10;;;;;;;-143.83;100.00;62900.06;5086625;28;20028;-66
2022/10/25 08:20:56;;;;;;;10.90;10.40;;;;;;;-143.83;100.00;62900.06;5081515;28;20024;-67
2022/10/25 08:23:22;;;;;;;10.68;10.18;;;;;;;-143.83;100.00;62900.06;5085406;28;20065;-68
2022/10/25 08:25:48;;;;;;;10.98;10.48;;;;;;;-143.83;100.00;62900.06;5081430;28;20387;-69
2022/10/25 08:28:14;;;;;;;10.80;10.30;;;;;;;-143.83;100.00;62900.06;5084894;28;20024;-67
2022/10/25 08:30:40;;;;;;;10.50;10.02;;;;;;;-143.83;100.00;62900.06;5078401;28;20032;-69
2022/10/25 08:33:05;;;;;;;10.73;10.23;;;;;;;-143.83;100.00;62900.06;5081533;28;20115;-69
2022/10/25 08:35:31;;;;;;;10.52;10.02;;;;;;;-143.83;100.00;62900.06;5081094;28;20099;-68
2022/10/25 08:37:59;;;;;;;10.50;10.00;;;;;;;-143.83;100.00;62900.06;5085581;28;20028;-68
2022/10/25 08:41:18;;;;;;;10.40;9.95;;;;;;;-143.83;100.00;62900.06;5080586;28;20020;-65
2022/10/25 08:44:28;;;;;;;11.00;10.50;;;;;;;-143.83;100.00;62900.06;5073953;28;20083;-68
2022/10/25 08:46:59;;;;;;;10.60;10.10;;;;;;;-143.83;100.00;62900.06;5071710;28;20044;-66
2022/10/25 08:49:50;;;;;;;10.20;9.80;;;;;;;-143.83;100.00;62900.06;5080587;28;20525;-68
2022/10/25 08:52:40;;;;;;;10.18;9.77;;;;;;;-143.83;100.00;62900.06;5083747;28;20441;-69
2022/10/25 08:55:32;;;;;;;11.00;10.50;;;;;;;-143.83;100.00;62900.06;5082378;28;20013;-71
2022/10/25 08:57:58;;;;;;;10.50;10.00;;;;;;;-143.83;100.00;62900.06;5078321;28;20137;-67
2022/10/25 09:00:29;;;;;;;11.02;10.52;;;;;;;-143.83;100.00;62900.06;5077203;28;20101;-66
2022/10/25 09:02:57;;;;;;;10.90;10.40;;;;;;;-143.83;100.00;62900.06;5081685;28;20031;-66
2022/10/25 09:05:41;;;;;;;10.00;9.60;;;;;;;-143.83;100.00;62900.06;5085653;28;20062;-66
2022/10/25 09:08:28;;;;;;;10.43;9.98;;;;;;;-143.83;100.00;62900.06;5079577;28;20563;-68
2022/10/25 09:11:02;;;;;;;10.20;9.80;;;;;;;-143.83;100.00;62900.06;5081794;28;20028;-67
2022/10/25 09:13:51;;;;;;;10.50;10.00;;;;;;;-143.83;100.00;62900.06;5083252;28;20024;-67
2022/10/25 09:16:22;;;;;;;10.20;9.80;;;;;;;-143.83;100.00;62900.06;5080187;28;20441;-67
2022/10/25 09:18:53;;;;;;;10.57;10.07;;;;;;;-143.83;100.00;62900.06;5084610;28;20028;-67
2022/10/25 09:21:48;;;;;;;10.10;9.70;;;;;;;-143.83;100.00;62900.06;5078415;28;20110;-67
2022/10/25 09:24:39;;;;;;;10.15;9.75;;;;;;;-143.83;100.00;62900.06;5078673;28;20059;-68
2022/10/25 09:27:14;;;;;;;10.02;9.63;;;;;;;-143.83;100.00;62900.06;5083102;28;20035;-68
2022/10/25 09:29:49;;;;;;;10.73;10.23;;;;;;;-143.83;100.00;62900.06;5085528;28;20081;-68
2022/10/25 09:32:28;;;;;;;10.60;10.10;;;;;;;-143.83;100.00;62900.06;5084797;28;20104;-68
2022/10/25 09:34:55;;;;;;;10.80;10.30;;;;;;;-143.83;100.00;62900.06;5082866;28;20035;-69
2022/10/25 09:37:28;;;;;;;10.68;10.18;;;;;;;-143.83;100.00;62900.06;5084764;28;20038;-68
2022/10/25 09:39:59;;;;;;;11.00;10.50;;;;;;;-143.83;100.00;62900.06;5087913;28;20066;-68
2022/10/25 09:42:31;;;;;;;10.43;9.93;;;;;;;-143.83;100.00;62900.06;5086662;28;20192;-68
2022/10/25 09:45:24;;;;;;;10.85;10.35;;;;;;;-143.83;100.00;62900.06;5080336;28;20023;-68
2022/10/25 09:48:19;;;;;;;11.00;10.50;;;;;;;-143.83;100.00;62900.06;5082739;28;20109;-68
2022/10/25 09:51:13;;;;;;;11.52;11.02;;;;;;;-143.83;100.00;62900.06;5078165;28;20530;-68
2022/10/25 09:53:41;;;;;;;10.70;10.20;;;;;;;-143.83;100.00;62900.06;5083431;28;20028;-68
2022/10/25 09:56:07;;;;;;;11.10;10.60;;;;;;;-143.83;100.00;62900.06;5085897;28;20024;-67
2022/10/25 09:58:37;;;;;;;10.63;10.13;;;;;;;-143.83;100.00;62900.06;5087558;28;20358;-68
2022/10/25 10:01:11;;;;;;;10.95;10.45;;;;;;;-143.83;100.00;62900.06;5082226;28;20434;-67
2022/10/25 10:03:37;;;;;;;11.40;10.90;;;;;;;-143.83;100.00;62900.06;5082097;28;20115;-68
2022/10/25 10:06:15;;;;;;;11.35;10.85;;;;;;;-143.83;100.00;62900.06;5087831;28;20027;-68
2022/10/25 10:08:48;;;;;;;10.93;10.43;;;;;;;-143.83;100.00;62900.06;5078147;28;20053;-68
2022/10/25 10:11:17;;;;;;;11.00;10.50;;;;;;;-143.83;100.00;62900.06;5103048;28;20020;-67
2022/10/25 10:13:47;;;;;;;10.98;10.48;;;;;;;-143.83;100.00;62900.06;5076379;28;20039;-67
2022/10/25 10:16:34;;;;;;;10.88;10.38;;;;;;;-143.83;100.00;62900.06;5083188;28;20032;-69
2022/10/25 10:19:23;;;;;;;12.35;11.75;;;;;;;-143.83;100.00;62900.06;5081199;28;20016;-65
2022/10/25 10:21:54;;;;;;;11.25;10.75;;;;;;;-143.83;100.00;62900.06;5085532;28;20032;-67
2022/10/25 10:24:21;;;;;;;10.27;9.77;;;;;;;-143.83;100.00;62900.06;5081000;28;20903;-67
2022/10/25 10:26:54;;;;;;;11.30;10.80;;;;;;;-143.83;100.00;62900.06;5078079;28;20035;-67
2022/10/25 10:29:29;;;;;;;10.40;9.90;;;;;;;-143.83;100.00;62900.06;5086644;28;20055;-66
2022/10/25 10:31:58;;;;;;;10.75;10.25;;;;;;;-143.83;100.00;62900.06;5079704;28;20031;-66
2022/10/25 10:34:50;;;;;;;11.18;10.68;;;;;;;-143.83;100.00;62900.06;5083184;28;20093;-67
2022/10/25 10:37:19;;;;;;;10.65;10.15;;;;;;;-143.83;100.00;62900.06;5084800;28;20024;-68
2022/10/25 10:39:50;;;;;;;11.50;11.00;;;;;;;-143.83;100.00;62900.06;5084357;28;20050;-68
2022/10/25 10:42:23;;;;;;;11.50;11.00;;;;;;;-143.83;100.00;62900.06;5081242;28;20028;-68
2022/10/25 10:45:07;;;;;;;10.93;10.43;;;;;;;-143.83;100.00;62900.06;5066325;28;20043;-66
2022/10/25 10:47:50;;;;;;;10.63;10.13;;;;;;;-143.83;100.00;62900.06;5085931;28;20028;-65
2022/10/25 10:50:27;;;;;;;10.47;9.97;;;;;;;-143.83;100.00;62900.06;5083086;28;20044;-65
2022/10/25 10:53:28;;;;;;;10.90;10.40;;;;;;;-143.83;100.00;62900.06;5086608;28;20032;-66
2022/10/25 10:55:56;;;;;;;11.18;10.68;;;;;;;-143.83;100.00;62900.06;5066644;28;20707;-66
2022/10/25 10:58:30;;;;;;;10.77;10.27;;;;;;;-143.83;100.00;62900.06;5086473;28;20110;-65
2022/10/25 11:01:01;;;;;;;10.70;10.20;;;;;;;-143.83;100.00;62900.06;5084649;28;20124;-66
2022/10/25 11:03:39;;;;;;;11.25;10.75;;;;;;;-143.83;100.00;62900.06;5092103;28;20272;-64
2022/10/25 11:06:38;;;;;;;10.77;10.27;;;;;;;-143.83;100.00;62900.06;5083447;28;20036;-65
2022/10/25 11:09:14;;;;;;;10.50;10.00;;;;;;;-143.83;100.00;62900.06;5061056;28;20139;-65
2022/10/25 11:11:40;;;;;;;10.45;9.95;;;;;;;-143.83;100.00;62900.06;5087176;28;20107;-64
2022/10/25 11:14:13;;;;;;;11.05;10.55;;;;;;;-143.83;100.00;62900.06;5082738;28;20162;-64
2022/10/25 11:16:59;;;;;;;11.00;10.50;;;;;;;-143.83;100.00;62900.06;5083580;28;20151;-64